sensor_id;sensor_type;location;lat;lon;timestamp;P1;durP1;ratioP1;P2;durP2;ratioP2
45944;SDS011;31655;48.972;10.686;2024-02-21T02:39:52;10.02;;;4.40;;
45944;SDS011;31655;48.972;10.686;2024-02-21T02:42:18;14.32;;;5.22;;
45944;SDS011;31655;48.972;10.686;2024-02-21T02:44:43;16.00;;;5.40;;
45944;SDS011;31655;48.972;10.686;2024-02-21T02:47:09;13.32;;;5.20;;
45944;SDS011;31655;48.972;10.686;2024-02-21T02:49:34;18.77;;;4.90;;
45944;SDS011;31655;48.972;10.686;2024-02-21T02:52:00;18.10;;;5.00;;
45944;SDS011;31655;48.972;10.686;2024-02-21T02:54:25;11.38;;;4.97;;
45944;SDS011;31655;48.972;10.686;2024-02-21T02:56:51;14.27;;;5.68;;
45944;SDS011;31655;48.972;10.686;2024-02-21T02:59:16;14.95;;;4.53;;
45944;SDS011;31655;48.972;10.686;2024-02-21T03:01:42;15.18;;;5.22;;
45944;SDS011;31655;48.972;10.686;2024-02-21T03:04:07;12.27;;;4.82;;
45944;SDS011;31655;48.972;10.686;2024-02-21T03:06:33;15.05;;;4.70;;
45944;SDS011;31655;48.972;10.686;2024-02-21T03:08:58;11.38;;;4.82;;
45944;SDS011;31655;48.972;10.686;2024-02-21T03:11:25;10.82;;;5.18;;
45944;SDS011;31655;48.972;10.686;2024-02-21T03:13:54;14.40;;;4.63;;
45944;SDS011;31655;48.972;10.686;2024-02-21T03:16:21;9.13;;;4.80;;
45944;SDS011;31655;48.972;10.686;2024-02-21T03:18:47;17.88;;;4.97;;
45944;SDS011;31655;48.972;10.686;2024-02-21T03:21:13;13.75;;;4.20;;
45944;SDS011;31655;48.972;10.686;2024-02-21T03:23:39;11.27;;;3.97;;
45944;SDS011;31655;48.972;10.686;2024-02-21T03:26:04;15.93;;;4.40;;
45944;SDS011;31655;48.972;10.686;2024-02-21T03:28:30;20.48;;;4.70;;
45944;SDS011;31655;48.972;10.686;2024-02-21T03:30:55;10.35;;;4.05;;
45944;SDS011;31655;48.972;10.686;2024-02-21T03:33:21;11.13;;;4.40;;
45944;SDS011;31655;48.972;10.686;2024-02-21T03:35:48;13.82;;;4.30;;
45944;SDS011;31655;48.972;10.686;2024-02-21T03:38:14;15.48;;;4.80;;
45944;SDS011;31655;48.972;10.686;2024-02-21T03:40:39;16.88;;;4.70;;
45944;SDS011;31655;48.972;10.686;2024-02-21T03:43:05;11.38;;;4.35;;
45944;SDS011;31655;48.972;10.686;2024-02-21T03:45:30;12.13;;;4.30;;
45944;SDS011;31655;48.972;10.686;2024-02-21T03:47:56;16.30;;;4.57;;
45944;SDS011;31655;48.972;10.686;2024-02-21T03:50:21;10.55;;;4.18;;
45944;SDS011;31655;48.972;10.686;2024-02-21T03:52:47;13.98;;;4.55;;
45944;SDS011;31655;48.972;10.686;2024-02-21T03:55:13;11.38;;;4.13;;
45944;SDS011;31655;48.972;10.686;2024-02-21T03:57:38;15.27;;;4.57;;
45944;SDS011;31655;48.972;10.686;2024-02-21T04:00:04;15.38;;;4.43;;
45944;SDS011;31655;48.972;10.686;2024-02-21T04:02:35;14.10;;;5.15;;
45944;SDS011;31655;48.972;10.686;2024-02-21T04:05:01;10.88;;;4.65;;
45944;SDS011;31655;48.972;10.686;2024-02-21T04:07:26;11.30;;;4.32;;
45944;SDS011;31655;48.972;10.686;2024-02-21T04:09:52;14.25;;;4.95;;
45944;SDS011;31655;48.972;10.686;2024-02-21T04:12:18;9.57;;;3.85;;
45944;SDS011;31655;48.972;10.686;2024-02-21T04:14:43;12.55;;;5.75;;
45944;SDS011;31655;48.972;10.686;2024-02-21T04:17:09;15.82;;;4.38;;
45944;SDS011;31655;48.972;10.686;2024-02-21T04:19:35;18.83;;;4.38;;
45944;SDS011;31655;48.972;10.686;2024-02-21T04:22:00;11.85;;;5.20;;
45944;SDS011;31655;48.972;10.686;2024-02-21T04:24:26;22.17;;;7.22;;
45944;SDS011;31655;48.972;10.686;2024-02-21T04:26:52;13.15;;;6.72;;
45944;SDS011;31655;48.972;10.686;2024-02-21T04:29:17;88.30;;;30.95;;
45944;SDS011;31655;48.972;10.686;2024-02-21T04:31:43;67.88;;;21.42;;
45944;SDS011;31655;48.972;10.686;2024-02-21T04:34:08;51.08;;;22.55;;
45944;SDS011;31655;48.972;10.686;2024-02-21T04:36:34;20.63;;;9.75;;
45944;SDS011;31655;48.972;10.686;2024-02-21T04:38:59;24.48;;;12.55;;
45944;SDS011;31655;48.972;10.686;2024-02-21T04:41:25;15.07;;;7.13;;
45944;SDS011;31655;48.972;10.686;2024-02-21T04:43:50;10.10;;;4.75;;
45944;SDS011;31655;48.972;10.686;2024-02-21T04:46:16;9.40;;;4.85;;
45944;SDS011;31655;48.972;10.686;2024-02-21T04:48:41;21.15;;;14.00;;
45944;SDS011;31655;48.972;10.686;2024-02-21T04:51:07;24.10;;;7.90;;
45944;SDS011;31655;48.972;10.686;2024-02-21T04:53:32;16.05;;;9.18;;
45944;SDS011;31655;48.972;10.686;2024-02-21T04:55:58;16.45;;;5.75;;
45944;SDS011;31655;48.972;10.686;2024-02-21T04:58:25;17.45;;;6.57;;
45944;SDS011;31655;48.972;10.686;2024-02-21T05:00:51;17.40;;;4.82;;
45944;SDS011;31655;48.972;10.686;2024-02-21T05:03:16;20.38;;;5.68;;
45944;SDS011;31655;48.972;10.686;2024-02-21T05:05:42;21.70;;;11.18;;
45944;SDS011;31655;48.972;10.686;2024-02-21T05:08:09;48.97;;;19.98;;
45944;SDS011;31655;48.972;10.686;2024-02-21T05:10:35;27.27;;;10.45;;
45944;SDS011;31655;48.972;10.686;2024-02-21T05:13:01;16.75;;;5.47;;
45944;SDS011;31655;48.972;10.686;2024-02-21T05:15:26;14.23;;;5.03;;
45944;SDS011;31655;48.972;10.686;2024-02-21T05:17:52;9.80;;;5.45;;
45944;SDS011;31655;48.972;10.686;2024-02-21T05:20:18;13.43;;;4.25;;
45944;SDS011;31655;48.972;10.686;2024-02-21T05:22:44;15.52;;;4.47;;
45944;SDS011;31655;48.972;10.686;2024-02-21T05:25:09;12.88;;;4.78;;
45944;SDS011;31655;48.972;10.686;2024-02-21T05:27:35;13.52;;;5.40;;
45944;SDS011;31655;48.972;10.686;2024-02-21T05:30:01;17.45;;;5.20;;
45944;SDS011;31655;48.972;10.686;2024-02-21T05:32:28;12.98;;;4.43;;
45944;SDS011;31655;48.972;10.686;2024-02-21T05:34:53;21.67;;;5.32;;
45944;SDS011;31655;48.972;10.686;2024-02-21T05:37:19;11.70;;;3.88;;
45944;SDS011;31655;48.972;10.686;2024-02-21T05:39:45;14.07;;;3.95;;
45944;SDS011;31655;48.972;10.686;2024-02-21T05:42:11;16.20;;;7.05;;
45944;SDS011;31655;48.972;10.686;2024-02-21T05:44:36;17.48;;;5.80;;
45944;SDS011;31655;48.972;10.686;2024-02-21T05:47:02;16.77;;;4.82;;
45944;SDS011;31655;48.972;10.686;2024-02-21T05:49:27;17.73;;;5.53;;
45944;SDS011;31655;48.972;10.686;2024-02-21T05:51:53;14.45;;;4.80;;
45944;SDS011;31655;48.972;10.686;2024-02-21T05:54:18;15.15;;;4.63;;
45944;SDS011;31655;48.972;10.686;2024-02-21T05:56:45;16.48;;;4.68;;
45944;SDS011;31655;48.972;10.686;2024-02-21T05:59:12;11.63;;;4.47;;
45944;SDS011;31655;48.972;10.686;2024-02-21T06:01:39;14.07;;;4.50;;
45944;SDS011;31655;48.972;10.686;2024-02-21T06:04:04;9.63;;;4.70;;
45944;SDS011;31655;48.972;10.686;2024-02-21T06:06:31;14.63;;;5.20;;
45944;SDS011;31655;48.972;10.686;2024-02-21T06:08:57;13.13;;;5.20;;
45944;SDS011;31655;48.972;10.686;2024-02-21T06:11:23;12.52;;;4.22;;
45944;SDS011;31655;48.972;10.686;2024-02-21T06:13:49;19.35;;;6.68;;
45944;SDS011;31655;48.972;10.686;2024-02-21T06:16:14;11.43;;;4.88;;
45944;SDS011;31655;48.972;10.686;2024-02-21T06:18:40;12.32;;;5.57;;
45944;SDS011;31655;48.972;10.686;2024-02-21T06:21:06;10.02;;;4.57;;
45944;SDS011;31655;48.972;10.686;2024-02-21T06:23:31;11.73;;;4.22;;
45944;SDS011;31655;48.972;10.686;2024-02-21T06:25:57;13.52;;;4.38;;
45944;SDS011;31655;48.972;10.686;2024-02-21T06:28:22;16.08;;;4.93;;
45944;SDS011;31655;48.972;10.686;2024-02-21T06:30:48;19.15;;;5.25;;
45944;SDS011;31655;48.972;10.686;2024-02-21T06:33:13;11.90;;;4.32;;
45944;SDS011;31655;48.972;10.686;2024-02-21T06:35:39;15.05;;;4.78;;
45944;SDS011;31655;48.972;10.686;2024-02-21T06:38:07;13.98;;;5.20;;
45944;SDS011;31655;48.972;10.686;2024-02-21T06:40:32;14.02;;;5.18;;
45944;SDS011;31655;48.972;10.686;2024-02-21T06:43:03;13.00;;;6.03;;
45944;SDS011;31655;48.972;10.686;2024-02-21T06:45:29;11.38;;;4.95;;
45944;SDS011;31655;48.972;10.686;2024-02-21T06:47:55;19.17;;;5.88;;
45944;SDS011;31655;48.972;10.686;2024-02-21T06:50:21;19.90;;;8.35;;
45944;SDS011;31655;48.972;10.686;2024-02-21T06:52:46;25.85;;;7.80;;
45944;SDS011;31655;48.972;10.686;2024-02-21T06:55:12;25.35;;;8.90;;
45944;SDS011;31655;48.972;10.686;2024-02-21T06:57:38;53.20;;;19.05;;
45944;SDS011;31655;48.972;10.686;2024-02-21T07:00:03;48.83;;;18.77;;
45944;SDS011;31655;48.972;10.686;2024-02-21T07:02:33;40.72;;;14.65;;
45944;SDS011;31655;48.972;10.686;2024-02-21T07:04:58;19.38;;;7.80;;
45944;SDS011;31655;48.972;10.686;2024-02-21T07:07:24;37.42;;;12.68;;
45944;SDS011;31655;48.972;10.686;2024-02-21T07:09:50;39.47;;;14.82;;
45944;SDS011;31655;48.972;10.686;2024-02-21T07:12:16;17.73;;;6.50;;
45944;SDS011;31655;48.972;10.686;2024-02-21T07:14:42;61.70;;;21.67;;
45944;SDS011;31655;48.972;10.686;2024-02-21T07:17:07;33.67;;;13.57;;
45944;SDS011;31655;48.972;10.686;2024-02-21T07:19:33;11.88;;;5.18;;
45944;SDS011;31655;48.972;10.686;2024-02-21T07:22:00;12.93;;;6.18;;
45944;SDS011;31655;48.972;10.686;2024-02-21T07:24:26;21.33;;;9.15;;
45944;SDS011;31655;48.972;10.686;2024-02-21T07:26:51;16.15;;;7.10;;
45944;SDS011;31655;48.972;10.686;2024-02-21T07:29:18;24.55;;;11.90;;
45944;SDS011;31655;48.972;10.686;2024-02-21T07:31:43;46.28;;;20.45;;
45944;SDS011;31655;48.972;10.686;2024-02-21T07:34:09;20.00;;;9.45;;
45944;SDS011;31655;48.972;10.686;2024-02-21T07:36:36;16.63;;;8.45;;
45944;SDS011;31655;48.972;10.686;2024-02-21T07:39:04;13.07;;;8.23;;
45944;SDS011;31655;48.972;10.686;2024-02-21T07:41:30;14.13;;;5.60;;
45944;SDS011;31655;48.972;10.686;2024-02-21T07:43:56;15.07;;;8.63;;
45944;SDS011;31655;48.972;10.686;2024-02-21T07:46:22;18.52;;;6.20;;
45944;SDS011;31655;48.972;10.686;2024-02-21T07:48:48;12.70;;;6.10;;
45944;SDS011;31655;48.972;10.686;2024-02-21T07:51:14;9.25;;;4.63;;
45944;SDS011;31655;48.972;10.686;2024-02-21T07:53:41;9.90;;;3.90;;
45944;SDS011;31655;48.972;10.686;2024-02-21T07:56:10;11.02;;;5.65;;
45944;SDS011;31655;48.972;10.686;2024-02-21T07:58:36;9.57;;;5.28;;
45944;SDS011;31655;48.972;10.686;2024-02-21T08:01:01;13.52;;;4.78;;
45944;SDS011;31655;48.972;10.686;2024-02-21T08:03:27;13.15;;;6.15;;
45944;SDS011;31655;48.972;10.686;2024-02-21T08:05:53;17.67;;;6.80;;
45944;SDS011;31655;48.972;10.686;2024-02-21T08:08:18;10.90;;;4.40;;
45944;SDS011;31655;48.972;10.686;2024-02-21T08:10:46;11.82;;;4.53;;
45944;SDS011;31655;48.972;10.686;2024-02-21T08:13:12;11.93;;;4.28;;
45944;SDS011;31655;48.972;10.686;2024-02-21T08:15:37;12.15;;;4.80;;
45944;SDS011;31655;48.972;10.686;2024-02-21T08:18:04;12.23;;;3.80;;
45944;SDS011;31655;48.972;10.686;2024-02-21T08:20:30;12.77;;;4.18;;
45944;SDS011;31655;48.972;10.686;2024-02-21T08:22:56;8.27;;;4.45;;
45944;SDS011;31655;48.972;10.686;2024-02-21T08:25:21;11.65;;;4.72;;
45944;SDS011;31655;48.972;10.686;2024-02-21T08:27:47;13.45;;;4.43;;
45944;SDS011;31655;48.972;10.686;2024-02-21T08:30:12;13.15;;;4.95;;
45944;SDS011;31655;48.972;10.686;2024-02-21T08:32:38;8.65;;;4.55;;
45944;SDS011;31655;48.972;10.686;2024-02-21T08:35:04;11.35;;;4.80;;
45944;SDS011;31655;48.972;10.686;2024-02-21T08:37:30;11.80;;;4.85;;
45944;SDS011;31655;48.972;10.686;2024-02-21T08:39:56;7.13;;;3.35;;
45944;SDS011;31655;48.972;10.686;2024-02-21T08:42:21;11.52;;;4.22;;
45944;SDS011;31655;48.972;10.686;2024-02-21T08:44:47;12.70;;;5.10;;
45944;SDS011;31655;48.972;10.686;2024-02-21T08:47:12;11.45;;;4.78;;
45944;SDS011;31655;48.972;10.686;2024-02-21T08:49:38;7.32;;;5.50;;
45944;SDS011;31655;48.972;10.686;2024-02-21T08:52:03;12.80;;;4.70;;
45944;SDS011;31655;48.972;10.686;2024-02-21T08:54:30;14.00;;;5.40;;
45944;SDS011;31655;48.972;10.686;2024-02-21T08:56:56;11.23;;;5.15;;
45944;SDS011;31655;48.972;10.686;2024-02-21T08:59:21;7.75;;;4.10;;
45944;SDS011;31655;48.972;10.686;2024-02-21T09:01:47;12.57;;;4.03;;
45944;SDS011;31655;48.972;10.686;2024-02-21T09:04:13;10.85;;;6.00;;
45944;SDS011;31655;48.972;10.686;2024-02-21T09:06:38;10.35;;;4.50;;
45944;SDS011;31655;48.972;10.686;2024-02-21T09:09:07;8.27;;;4.00;;
45944;SDS011;31655;48.972;10.686;2024-02-21T09:11:33;12.15;;;5.00;;
45944;SDS011;31655;48.972;10.686;2024-02-21T09:13:59;31.58;;;15.52;;
45944;SDS011;31655;48.972;10.686;2024-02-21T09:16:25;23.50;;;9.13;;
45944;SDS011;31655;48.972;10.686;2024-02-21T09:18:50;7.50;;;3.42;;
45944;SDS011;31655;48.972;10.686;2024-02-21T09:21:17;6.97;;;3.10;;
45944;SDS011;31655;48.972;10.686;2024-02-21T09:23:43;9.30;;;4.13;;
45944;SDS011;31655;48.972;10.686;2024-02-21T09:26:10;9.30;;;3.65;;
45944;SDS011;31655;48.972;10.686;2024-02-21T09:28:38;10.45;;;3.90;;
45944;SDS011;31655;48.972;10.686;2024-02-21T09:31:04;13.73;;;3.95;;
45944;SDS011;31655;48.972;10.686;2024-02-21T09:33:30;10.30;;;3.40;;
45944;SDS011;31655;48.972;10.686;2024-02-21T09:35:55;10.35;;;4.30;;
45944;SDS011;31655;48.972;10.686;2024-02-21T09:38:21;6.97;;;2.83;;
45944;SDS011;31655;48.972;10.686;2024-02-21T09:40:46;11.13;;;3.85;;
45944;SDS011;31655;48.972;10.686;2024-02-21T09:43:12;9.25;;;3.85;;
45944;SDS011;31655;48.972;10.686;2024-02-21T09:45:42;10.70;;;4.07;;
45944;SDS011;31655;48.972;10.686;2024-02-21T09:50:46;8.05;;;3.13;;
45944;SDS011;31655;48.972;10.686;2024-02-21T09:53:14;10.38;;;3.47;;
45944;SDS011;31655;48.972;10.686;2024-02-21T09:55:40;7.05;;;3.15;;
45944;SDS011;31655;48.972;10.686;2024-02-21T09:58:07;8.05;;;3.47;;
45944;SDS011;31655;48.972;10.686;2024-02-21T10:00:34;13.82;;;5.00;;
45944;SDS011;31655;48.972;10.686;2024-02-21T10:03:00;11.20;;;3.17;;
45944;SDS011;31655;48.972;10.686;2024-02-21T10:05:26;8.13;;;3.15;;
45944;SDS011;31655;48.972;10.686;2024-02-21T10:07:52;9.27;;;3.92;;
45944;SDS011;31655;48.972;10.686;2024-02-21T10:10:18;15.13;;;4.18;;
45944;SDS011;31655;48.972;10.686;2024-02-21T10:12:50;7.07;;;2.90;;
45944;SDS011;31655;48.972;10.686;2024-02-21T10:15:20;9.93;;;2.97;;
45944;SDS011;31655;48.972;10.686;2024-02-21T10:17:49;6.93;;;2.70;;
45944;SDS011;31655;48.972;10.686;2024-02-21T10:20:23;7.00;;;2.90;;
45944;SDS011;31655;48.972;10.686;2024-02-21T10:22:49;8.70;;;2.50;;
45944;SDS011;31655;48.972;10.686;2024-02-21T10:25:33;7.68;;;3.05;;
45944;SDS011;31655;48.972;10.686;2024-02-21T10:27:59;11.05;;;3.10;;
45944;SDS011;31655;48.972;10.686;2024-02-21T10:30:25;6.40;;;2.90;;
45944;SDS011;31655;48.972;10.686;2024-02-21T10:32:51;9.45;;;3.05;;
45944;SDS011;31655;48.972;10.686;2024-02-21T10:35:28;9.68;;;3.03;;
45944;SDS011;31655;48.972;10.686;2024-02-21T10:37:55;8.27;;;3.47;;
45944;SDS011;31655;48.972;10.686;2024-02-21T10:40:30;8.70;;;3.53;;
45944;SDS011;31655;48.972;10.686;2024-02-21T10:42:56;8.18;;;3.88;;
45944;SDS011;31655;48.972;10.686;2024-02-21T10:45:35;10.15;;;3.15;;
45944;SDS011;31655;48.972;10.686;2024-02-21T10:48:11;7.95;;;3.00;;
45944;SDS011;31655;48.972;10.686;2024-02-21T10:50:47;6.85;;;2.88;;
45944;SDS011;31655;48.972;10.686;2024-02-21T10:53:29;11.07;;;3.55;;
45944;SDS011;31655;48.972;10.686;2024-02-21T10:58:35;13.60;;;3.75;;
45944;SDS011;31655;48.972;10.686;2024-02-21T11:01:02;7.13;;;3.80;;
45944;SDS011;31655;48.972;10.686;2024-02-21T11:03:29;5.32;;;2.83;;
45944;SDS011;31655;48.972;10.686;2024-02-21T11:05:55;12.10;;;3.08;;
45944;SDS011;31655;48.972;10.686;2024-02-21T11:08:22;5.50;;;2.70;;
45944;SDS011;31655;48.972;10.686;2024-02-21T11:10:49;5.55;;;2.70;;
45944;SDS011;31655;48.972;10.686;2024-02-21T11:13:15;10.55;;;3.20;;
45944;SDS011;31655;48.972;10.686;2024-02-21T11:15:41;8.10;;;2.75;;
45944;SDS011;31655;48.972;10.686;2024-02-21T11:18:06;12.07;;;3.10;;
45944;SDS011;31655;48.972;10.686;2024-02-21T11:20:35;9.27;;;3.25;;
45944;SDS011;31655;48.972;10.686;2024-02-21T11:23:02;6.35;;;3.15;;
45944;SDS011;31655;48.972;10.686;2024-02-21T11:25:28;9.32;;;3.30;;
45944;SDS011;31655;48.972;10.686;2024-02-21T11:28:25;7.88;;;3.03;;
45944;SDS011;31655;48.972;10.686;2024-02-21T11:30:50;7.45;;;2.95;;
45944;SDS011;31655;48.972;10.686;2024-02-21T11:33:16;8.75;;;3.05;;
45944;SDS011;31655;48.972;10.686;2024-02-21T11:35:42;9.45;;;3.20;;
45944;SDS011;31655;48.972;10.686;2024-02-21T11:38:08;15.27;;;3.30;;
45944;SDS011;31655;48.972;10.686;2024-02-21T11:40:38;15.07;;;3.15;;
45944;SDS011;31655;48.972;10.686;2024-02-21T11:43:05;4.72;;;2.67;;
45944;SDS011;31655;48.972;10.686;2024-02-21T11:45:31;6.72;;;2.63;;
45944;SDS011;31655;48.972;10.686;2024-02-21T11:47:57;6.55;;;2.75;;
45944;SDS011;31655;48.972;10.686;2024-02-21T11:50:25;7.35;;;3.08;;
45944;SDS011;31655;48.972;10.686;2024-02-21T11:52:53;9.00;;;3.30;;
45944;SDS011;31655;48.972;10.686;2024-02-21T11:55:20;7.03;;;2.72;;
45944;SDS011;31655;48.972;10.686;2024-02-21T12:02:55;13.02;;;3.45;;
45944;SDS011;31655;48.972;10.686;2024-02-21T12:05:26;6.25;;;2.67;;
45944;SDS011;31655;48.972;10.686;2024-02-21T12:07:53;10.25;;;2.97;;
45944;SDS011;31655;48.972;10.686;2024-02-21T12:10:20;7.25;;;2.80;;
45944;SDS011;31655;48.972;10.686;2024-02-21T12:12:45;9.02;;;2.83;;
45944;SDS011;31655;48.972;10.686;2024-02-21T12:15:11;5.00;;;2.97;;
45944;SDS011;31655;48.972;10.686;2024-02-21T12:17:36;7.78;;;3.38;;
45944;SDS011;31655;48.972;10.686;2024-02-21T12:20:03;6.47;;;3.55;;
45944;SDS011;31655;48.972;10.686;2024-02-21T12:22:36;8.85;;;3.70;;
45944;SDS011;31655;48.972;10.686;2024-02-21T12:25:25;8.43;;;3.20;;
45944;SDS011;31655;48.972;10.686;2024-02-21T12:27:53;8.77;;;3.15;;
45944;SDS011;31655;48.972;10.686;2024-02-21T12:30:19;9.63;;;3.67;;
45944;SDS011;31655;48.972;10.686;2024-02-21T12:32:45;7.40;;;3.72;;
45944;SDS011;31655;48.972;10.686;2024-02-21T12:35:11;9.32;;;3.55;;
45944;SDS011;31655;48.972;10.686;2024-02-21T12:37:36;9.77;;;3.38;;
45944;SDS011;31655;48.972;10.686;2024-02-21T12:40:03;9.60;;;3.33;;
45944;SDS011;31655;48.972;10.686;2024-02-21T12:42:33;8.48;;;3.42;;
45944;SDS011;31655;48.972;10.686;2024-02-21T12:44:59;6.80;;;3.25;;
45944;SDS011;31655;48.972;10.686;2024-02-21T12:47:27;12.80;;;3.83;;
45944;SDS011;31655;48.972;10.686;2024-02-21T12:49:53;7.95;;;3.60;;
45944;SDS011;31655;48.972;10.686;2024-02-21T12:52:19;14.30;;;3.30;;
45944;SDS011;31655;48.972;10.686;2024-02-21T12:54:44;14.18;;;3.22;;
45944;SDS011;31655;48.972;10.686;2024-02-21T12:57:10;5.95;;;3.17;;
45944;SDS011;31655;48.972;10.686;2024-02-21T12:59:36;9.07;;;3.53;;
45944;SDS011;31655;48.972;10.686;2024-02-21T13:02:01;7.13;;;2.80;;
45944;SDS011;31655;48.972;10.686;2024-02-21T13:04:27;3.95;;;2.50;;
45944;SDS011;31655;48.972;10.686;2024-02-21T13:06:53;8.80;;;2.88;;
45944;SDS011;31655;48.972;10.686;2024-02-21T13:09:19;7.07;;;3.15;;
45944;SDS011;31655;48.972;10.686;2024-02-21T13:11:45;6.63;;;3.20;;
45944;SDS011;31655;48.972;10.686;2024-02-21T13:14:11;8.77;;;2.72;;
45944;SDS011;31655;48.972;10.686;2024-02-21T13:16:38;6.80;;;2.55;;
45944;SDS011;31655;48.972;10.686;2024-02-21T13:19:07;5.93;;;3.00;;
45944;SDS011;31655;48.972;10.686;2024-02-21T13:21:36;10.07;;;2.45;;
45944;SDS011;31655;48.972;10.686;2024-02-21T13:24:02;6.07;;;2.53;;
45944;SDS011;31655;48.972;10.686;2024-02-21T13:26:28;11.48;;;3.78;;
45944;SDS011;31655;48.972;10.686;2024-02-21T13:28:54;4.75;;;2.88;;
45944;SDS011;31655;48.972;10.686;2024-02-21T13:31:20;8.73;;;2.35;;
45944;SDS011;31655;48.972;10.686;2024-02-21T13:33:46;4.97;;;3.00;;
45944;SDS011;31655;48.972;10.686;2024-02-21T13:36:12;11.35;;;3.45;;
45944;SDS011;31655;48.972;10.686;2024-02-21T13:38:38;9.15;;;2.88;;
45944;SDS011;31655;48.972;10.686;2024-02-21T13:41:07;12.00;;;2.95;;
45944;SDS011;31655;48.972;10.686;2024-02-21T13:43:33;9.55;;;2.92;;
45944;SDS011;31655;48.972;10.686;2024-02-21T13:45:59;6.38;;;3.22;;
45944;SDS011;31655;48.972;10.686;2024-02-21T13:48:30;6.53;;;2.55;;
45944;SDS011;31655;48.972;10.686;2024-02-21T13:50:56;7.43;;;2.50;;
45944;SDS011;31655;48.972;10.686;2024-02-21T13:53:21;11.48;;;3.58;;
45944;SDS011;31655;48.972;10.686;2024-02-21T13:55:48;5.78;;;2.95;;
45944;SDS011;31655;48.972;10.686;2024-02-21T13:58:14;4.70;;;2.83;;
45944;SDS011;31655;48.972;10.686;2024-02-21T14:00:40;11.15;;;2.92;;
45944;SDS011;31655;48.972;10.686;2024-02-21T14:03:06;6.97;;;2.60;;
45944;SDS011;31655;48.972;10.686;2024-02-21T14:05:31;7.45;;;2.15;;
45944;SDS011;31655;48.972;10.686;2024-02-21T14:07:57;7.57;;;2.67;;
45944;SDS011;31655;48.972;10.686;2024-02-21T14:10:23;5.63;;;3.15;;
45944;SDS011;31655;48.972;10.686;2024-02-21T14:12:48;7.53;;;2.78;;
45944;SDS011;31655;48.972;10.686;2024-02-21T14:15:14;10.25;;;3.40;;
45944;SDS011;31655;48.972;10.686;2024-02-21T14:17:41;5.72;;;2.60;;
45944;SDS011;31655;48.972;10.686;2024-02-21T14:20:07;4.63;;;2.63;;
45944;SDS011;31655;48.972;10.686;2024-02-21T14:22:33;6.88;;;3.08;;
45944;SDS011;31655;48.972;10.686;2024-02-21T14:25:03;6.78;;;2.85;;
45944;SDS011;31655;48.972;10.686;2024-02-21T14:27:31;5.75;;;2.78;;
45944;SDS011;31655;48.972;10.686;2024-02-21T14:29:57;4.50;;;2.25;;
45944;SDS011;31655;48.972;10.686;2024-02-21T14:32:23;5.93;;;2.67;;
45944;SDS011;31655;48.972;10.686;2024-02-21T14:34:48;7.88;;;2.63;;
45944;SDS011;31655;48.972;10.686;2024-02-21T14:37:14;5.75;;;2.35;;
45944;SDS011;31655;48.972;10.686;2024-02-21T14:39:40;4.68;;;2.28;;
45944;SDS011;31655;48.972;10.686;2024-02-21T14:42:06;5.40;;;2.30;;
45944;SDS011;31655;48.972;10.686;2024-02-21T14:44:34;3.20;;;1.83;;
45944;SDS011;31655;48.972;10.686;2024-02-21T14:47:00;7.97;;;2.33;;
45944;SDS011;31655;48.972;10.686;2024-02-21T14:49:25;4.57;;;2.33;;
45944;SDS011;31655;48.972;10.686;2024-02-21T14:51:53;5.28;;;2.97;;
45944;SDS011;31655;48.972;10.686;2024-02-21T14:54:19;6.00;;;2.55;;
45944;SDS011;31655;48.972;10.686;2024-02-21T14:56:45;4.85;;;2.15;;
45944;SDS011;31655;48.972;10.686;2024-02-21T14:59:11;3.55;;;1.77;;
45944;SDS011;31655;48.972;10.686;2024-02-21T15:01:37;5.45;;;1.80;;
45944;SDS011;31655;48.972;10.686;2024-02-21T15:04:03;3.85;;;2.03;;
45944;SDS011;31655;48.972;10.686;2024-02-21T15:06:29;2.65;;;1.73;;
45944;SDS011;31655;48.972;10.686;2024-02-21T15:08:56;5.15;;;2.28;;
45944;SDS011;31655;48.972;10.686;2024-02-21T15:11:22;4.40;;;2.00;;
45944;SDS011;31655;48.972;10.686;2024-02-21T15:13:48;4.90;;;2.05;;
45944;SDS011;31655;48.972;10.686;2024-02-21T15:16:14;4.90;;;1.70;;
45944;SDS011;31655;48.972;10.686;2024-02-21T15:18:41;3.90;;;1.70;;
45944;SDS011;31655;48.972;10.686;2024-02-21T15:21:06;3.47;;;1.92;;
45944;SDS011;31655;48.972;10.686;2024-02-21T15:23:35;3.03;;;1.52;;
45944;SDS011;31655;48.972;10.686;2024-02-21T15:26:01;4.55;;;2.33;;
45944;SDS011;31655;48.972;10.686;2024-02-21T15:28:27;8.52;;;1.63;;
45944;SDS011;31655;48.972;10.686;2024-02-21T15:30:53;3.92;;;1.52;;
45944;SDS011;31655;48.972;10.686;2024-02-21T15:33:19;6.13;;;1.70;;
45944;SDS011;31655;48.972;10.686;2024-02-21T15:35:45;2.88;;;1.50;;
45944;SDS011;31655;48.972;10.686;2024-02-21T15:38:10;1.73;;;1.10;;
45944;SDS011;31655;48.972;10.686;2024-02-21T15:40:36;3.10;;;1.52;;
45944;SDS011;31655;48.972;10.686;2024-02-21T15:43:02;3.63;;;1.45;;
45944;SDS011;31655;48.972;10.686;2024-02-21T15:45:28;4.05;;;2.05;;
45944;SDS011;31655;48.972;10.686;2024-02-21T15:47:54;2.78;;;1.58;;
45944;SDS011;31655;48.972;10.686;2024-02-21T15:50:19;4.07;;;1.55;;
45944;SDS011;31655;48.972;10.686;2024-02-21T15:52:45;5.30;;;1.73;;
45944;SDS011;31655;48.972;10.686;2024-02-21T15:55:10;4.80;;;1.30;;
45944;SDS011;31655;48.972;10.686;2024-02-21T15:57:37;3.90;;;1.50;;
45944;SDS011;31655;48.972;10.686;2024-02-21T16:00:04;8.10;;;2.17;;
45944;SDS011;31655;48.972;10.686;2024-02-21T16:02:30;3.22;;;1.80;;
45944;SDS011;31655;48.972;10.686;2024-02-21T16:04:56;5.93;;;1.90;;
45944;SDS011;31655;48.972;10.686;2024-02-21T16:07:22;5.93;;;2.58;;
45944;SDS011;31655;48.972;10.686;2024-02-21T16:09:48;4.97;;;2.10;;
45944;SDS011;31655;48.972;10.686;2024-02-21T16:12:13;2.45;;;1.35;;
45944;SDS011;31655;48.972;10.686;2024-02-21T16:14:39;6.03;;;1.95;;
45944;SDS011;31655;48.972;10.686;2024-02-21T16:17:05;15.38;;;2.72;;
45944;SDS011;31655;48.972;10.686;2024-02-21T16:19:31;17.77;;;7.07;;
45944;SDS011;31655;48.972;10.686;2024-02-21T16:21:57;15.88;;;6.25;;
45944;SDS011;31655;48.972;10.686;2024-02-21T16:24:23;20.80;;;7.25;;
45944;SDS011;31655;48.972;10.686;2024-02-21T16:26:49;23.77;;;7.93;;
45944;SDS011;31655;48.972;10.686;2024-02-21T16:29:14;85.07;;;27.50;;
45944;SDS011;31655;48.972;10.686;2024-02-21T16:31:40;41.90;;;13.30;;
45944;SDS011;31655;48.972;10.686;2024-02-21T16:34:05;83.32;;;21.23;;
45944;SDS011;31655;48.972;10.686;2024-02-21T16:36:32;17.65;;;5.40;;
45944;SDS011;31655;48.972;10.686;2024-02-21T16:38:59;87.90;;;28.65;;
45944;SDS011;31655;48.972;10.686;2024-02-21T16:41:26;100.88;;;37.15;;
45944;SDS011;31655;48.972;10.686;2024-02-21T16:43:54;47.10;;;19.33;;
45944;SDS011;31655;48.972;10.686;2024-02-21T16:46:20;79.95;;;32.90;;
45944;SDS011;31655;48.972;10.686;2024-02-21T16:48:46;27.73;;;12.73;;
45944;SDS011;31655;48.972;10.686;2024-02-21T16:51:11;31.08;;;15.30;;
45944;SDS011;31655;48.972;10.686;2024-02-21T16:53:37;5.45;;;2.75;;
45944;SDS011;31655;48.972;10.686;2024-02-21T16:56:03;8.13;;;2.97;;
45944;SDS011;31655;48.972;10.686;2024-02-21T16:58:30;6.63;;;2.72;;
45944;SDS011;31655;48.972;10.686;2024-02-21T17:01:01;4.75;;;3.08;;
45944;SDS011;31655;48.972;10.686;2024-02-21T17:03:30;4.30;;;2.88;;
45944;SDS011;31655;48.972;10.686;2024-02-21T17:05:59;5.60;;;2.50;;
45944;SDS011;31655;48.972;10.686;2024-02-21T17:08:25;4.78;;;2.55;;
45944;SDS011;31655;48.972;10.686;2024-02-21T17:10:51;3.28;;;2.10;;